createdAt,value
2018-11-28T00:02:11.758Z,-4.90
2018-11-28T00:04:38.410Z,-4.90
2018-11-28T00:07:05.061Z,-4.90
2018-11-28T00:09:31.703Z,-4.90
2018-11-28T00:11:58.351Z,-5.00
2018-11-28T00:14:24.996Z,-5.00
2018-11-28T00:16:51.644Z,-5.00
2018-11-28T00:19:18.290Z,-5.00
2018-11-28T00:21:44.934Z,-5.00
2018-11-28T00:26:45.034Z,-5.00
2018-11-28T00:29:11.679Z,-5.00
2018-11-28T00:31:38.335Z,-5.00
2018-11-28T00:34:05.291Z,-5.10
2018-11-28T00:36:31.939Z,-5.10
2018-11-28T00:38:58.579Z,-5.10
2018-11-28T00:41:25.230Z,-5.10
2018-11-28T00:43:51.878Z,-5.10
2018-11-28T00:46:18.533Z,-5.00
2018-11-28T00:48:45.166Z,-5.00
2018-11-28T00:51:11.803Z,-5.00
2018-11-28T00:53:38.443Z,-5.10
2018-11-28T00:56:05.123Z,-5.10
2018-11-28T00:58:31.755Z,-5.10
2018-11-28T01:00:58.422Z,-5.10
2018-11-28T01:03:25.065Z,-5.00
2018-11-28T01:05:51.698Z,-5.00
2018-11-28T01:08:18.421Z,-4.90
2018-11-28T01:10:45.053Z,-4.90
2018-11-28T01:13:11.701Z,-4.80
2018-11-28T01:15:38.378Z,-4.60
2018-11-28T01:18:05.597Z,-4.50
2018-11-28T01:20:32.239Z,-4.30
2018-11-28T01:22:58.882Z,-4.20
2018-11-28T01:25:25.522Z,-4.00
2018-11-28T01:27:52.172Z,-3.90
2018-11-28T01:30:19.332Z,-3.80
2018-11-28T01:32:46.071Z,-3.80
2018-11-28T01:35:13.209Z,-3.60
2018-11-28T01:37:40.081Z,-3.60
2018-11-28T01:40:09.411Z,-3.50
2018-11-28T01:42:36.058Z,-3.50
2018-11-28T01:45:02.721Z,-3.50
2018-11-28T01:47:29.394Z,-3.40
2018-11-28T01:49:56.043Z,-3.40
2018-11-28T01:52:22.690Z,-3.30
2018-11-28T01:54:49.325Z,-3.30
2018-11-28T01:57:15.974Z,-3.30
2018-11-28T01:59:42.613Z,-3.20
2018-11-28T02:02:09.995Z,-3.10
2018-11-28T02:04:36.659Z,-3.10
2018-11-28T02:07:03.903Z,-3.10
2018-11-28T02:09:31.080Z,-3.10
2018-11-28T02:11:58.563Z,-3.00
2018-11-28T02:14:25.219Z,-3.00
2018-11-28T02:16:51.891Z,-3.10
2018-11-28T02:19:18.530Z,-3.10
2018-11-28T02:21:45.190Z,-3.10
2018-11-28T02:24:11.838Z,-3.10
2018-11-28T02:26:38.510Z,-3.00
2018-11-28T02:29:05.151Z,-3.10
2018-11-28T02:31:31.811Z,-3.00
2018-11-28T02:33:58.447Z,-3.10
2018-11-28T02:36:25.102Z,-3.10
2018-11-28T02:38:51.739Z,-3.00
2018-11-28T02:41:18.401Z,-3.10
2018-11-28T02:43:45.046Z,-3.10
2018-11-28T02:46:32.718Z,-3.10
2018-11-28T02:48:59.387Z,-3.10
2018-11-28T02:51:26.066Z,-3.10
2018-11-28T02:53:52.751Z,-3.10
2018-11-28T02:56:19.435Z,-3.10
2018-11-28T02:58:46.082Z,-3.10
2018-11-28T03:01:12.767Z,-3.10
2018-11-28T03:03:39.439Z,-3.10
2018-11-28T03:06:06.123Z,-3.10
2018-11-28T03:08:32.772Z,-3.00
2018-11-28T03:10:59.435Z,-3.00
2018-11-28T03:13:26.079Z,-3.00
2018-11-28T03:15:53.896Z,-3.00
2018-11-28T03:18:20.714Z,-3.00
2018-11-28T03:20:47.383Z,-3.00
2018-11-28T03:23:14.030Z,-3.00
2018-11-28T03:25:40.703Z,-3.00
2018-11-28T03:28:07.346Z,-3.00
2018-11-28T03:30:34.011Z,-3.00
2018-11-28T03:33:00.695Z,-3.10
2018-11-28T03:35:27.383Z,-3.00
2018-11-28T03:37:54.030Z,-3.00
2018-11-28T03:40:20.679Z,-3.00
2018-11-28T03:42:47.362Z,-3.00
2018-11-28T03:45:14.401Z,-3.00
2018-11-28T03:47:41.398Z,-3.00
2018-11-28T03:50:08.624Z,-3.00
2018-11-28T03:52:35.495Z,-3.10
2018-11-28T03:55:02.151Z,-3.10
2018-11-28T03:57:28.826Z,-3.10
2018-11-28T03:59:55.470Z,-3.10
2018-11-28T04:02:22.144Z,-3.10
2018-11-28T04:04:48.793Z,-3.10
2018-11-28T04:07:15.464Z,-3.20
2018-11-28T04:09:42.111Z,-3.20
2018-11-28T04:12:08.802Z,-3.20
2018-11-28T04:14:35.442Z,-3.20
2018-11-28T04:17:02.118Z,-3.20
2018-11-28T04:19:28.765Z,-3.20
2018-11-28T04:21:55.439Z,-3.20
2018-11-28T04:24:22.086Z,-3.20
2018-11-28T04:26:48.755Z,-3.20
2018-11-28T04:29:15.402Z,-3.30
2018-11-28T04:31:42.083Z,-3.20
2018-11-28T04:34:08.722Z,-3.20
2018-11-28T04:36:35.388Z,-3.20
2018-11-28T04:39:02.068Z,-3.30
2018-11-28T04:41:28.742Z,-3.30
2018-11-28T04:43:55.390Z,-3.30
2018-11-28T04:46:22.059Z,-3.20
2018-11-28T04:48:48.707Z,-3.30
2018-11-28T04:51:15.405Z,-3.30
2018-11-28T04:53:42.051Z,-3.30
2018-11-28T04:56:08.730Z,-3.30
2018-11-28T04:58:35.374Z,-3.30
2018-11-28T05:01:02.047Z,-3.30
2018-11-28T05:03:28.702Z,-3.30
2018-11-28T05:05:55.375Z,-3.30
2018-11-28T05:08:22.050Z,-3.30
2018-11-28T05:10:48.723Z,-3.30
2018-11-28T05:13:15.384Z,-3.30
2018-11-28T05:15:42.053Z,-3.30
2018-11-28T05:18:08.695Z,-3.40
2018-11-28T05:20:35.361Z,-3.40
2018-11-28T05:23:02.523Z,-3.50
2018-11-28T05:25:29.278Z,-3.40
2018-11-28T05:27:57.352Z,-3.50
2018-11-28T05:30:24.529Z,-3.50
2018-11-28T05:32:51.170Z,-3.60
2018-11-28T05:35:18.418Z,-3.70
2018-11-28T05:37:45.247Z,-3.80
2018-11-28T05:40:14.532Z,-4.00
2018-11-28T05:42:41.190Z,-4.10
2018-11-28T05:45:08.550Z,-4.20
2018-11-28T05:47:35.433Z,-4.30
2018-11-28T05:50:02.454Z,-4.40
2018-11-28T05:52:29.117Z,-4.40
2018-11-28T05:54:55.751Z,-4.40
2018-11-28T05:57:22.419Z,-4.40
2018-11-28T05:59:49.055Z,-4.40
2018-11-28T06:02:15.722Z,-4.40
2018-11-28T06:04:42.366Z,-4.50
2018-11-28T06:07:09.031Z,-4.50
2018-11-28T06:09:35.671Z,-4.50
2018-11-28T06:12:02.343Z,-4.50
2018-11-28T06:14:28.991Z,-4.60
2018-11-28T06:16:55.665Z,-4.60
2018-11-28T06:19:22.319Z,-4.60
2018-11-28T06:21:48.987Z,-4.60
2018-11-28T06:24:15.618Z,-4.60
2018-11-28T06:26:42.257Z,-4.70
2018-11-28T06:29:08.905Z,-4.70
2018-11-28T06:31:35.534Z,-4.70
2018-11-28T06:34:02.182Z,-4.70
2018-11-28T06:36:28.826Z,-4.80
2018-11-28T06:38:55.470Z,-4.80
2018-11-28T06:41:22.130Z,-4.70
2018-11-28T06:43:48.795Z,-4.60
2018-11-28T06:46:15.442Z,-4.60
2018-11-28T06:48:42.086Z,-4.50
2018-11-28T06:51:08.727Z,-4.40
2018-11-28T06:53:35.498Z,-4.30
2018-11-28T06:56:02.150Z,-4.10
2018-11-28T06:58:28.790Z,-4.00
2018-11-28T07:00:55.442Z,-3.90
2018-11-28T07:03:22.078Z,-3.80
2018-11-28T07:05:48.723Z,-3.70
2018-11-28T07:08:17.735Z,-3.70
2018-11-28T07:10:45.185Z,-3.60
2018-11-28T07:13:11.818Z,-3.60
2018-11-28T07:15:38.470Z,-3.50
2018-11-28T07:18:10.966Z,-3.40
2018-11-28T07:20:37.617Z,-3.40
2018-11-28T07:23:04.719Z,-3.40
2018-11-28T07:25:31.362Z,-3.30
2018-11-28T07:27:57.994Z,-3.20
2018-11-28T07:30:24.643Z,-3.20
2018-11-28T07:32:52.029Z,-3.20
2018-11-28T07:35:18.679Z,-3.10
2018-11-28T07:37:45.326Z,-3.10
2018-11-28T07:40:12.691Z,-3.10
2018-11-28T07:42:39.670Z,-3.00
2018-11-28T07:45:07.622Z,-3.00
2018-11-28T07:47:34.255Z,-2.90
2018-11-28T07:50:00.909Z,-2.80
2018-11-28T07:52:27.551Z,-2.80
2018-11-28T07:54:54.208Z,-2.70
2018-11-28T07:57:20.856Z,-2.70
2018-11-28T07:59:47.502Z,-2.70
2018-11-28T08:02:14.146Z,-2.70
2018-11-28T08:04:40.811Z,-2.60
2018-11-28T08:07:07.449Z,-2.60
2018-11-28T08:09:34.113Z,-2.50
2018-11-28T08:12:00.778Z,-2.50
2018-11-28T08:14:27.451Z,-2.40
2018-11-28T08:16:54.094Z,-2.40
2018-11-28T08:19:24.066Z,-2.30
2018-11-28T08:21:47.433Z,-2.30
2018-11-28T08:24:14.089Z,-2.20
2018-11-28T08:26:40.754Z,-2.10
2018-11-28T08:29:07.410Z,-2.00
2018-11-28T08:31:34.058Z,-1.90
2018-11-28T08:34:00.702Z,-1.90
2018-11-28T08:36:27.378Z,-1.80
2018-11-28T08:38:54.066Z,-1.60
2018-11-28T08:41:20.706Z,-1.60
2018-11-28T08:43:47.354Z,-1.50
2018-11-28T08:46:14.009Z,-1.40
2018-11-28T08:48:40.671Z,-1.20
2018-11-28T08:51:07.301Z,-1.20
2018-11-28T08:53:33.972Z,-1.00
2018-11-28T08:56:00.619Z,-0.80
2018-11-28T08:58:27.249Z,-0.60
2018-11-28T09:00:53.886Z,-0.20
2018-11-28T09:03:20.518Z,0.20
2018-11-28T09:05:47.171Z,0.40
2018-11-28T09:08:13.798Z,0.80
2018-11-28T09:10:40.446Z,1.20
2018-11-28T09:13:07.091Z,1.40
2018-11-28T09:15:33.775Z,1.70
2018-11-28T09:18:00.458Z,2.00
2018-11-28T09:20:27.087Z,2.10
2018-11-28T09:22:53.796Z,1.90
2018-11-28T09:25:20.555Z,1.90
2018-11-28T09:27:51.762Z,1.90
2018-11-28T09:30:18.705Z,2.00
2018-11-28T09:32:45.673Z,1.90
2018-11-28T09:35:12.735Z,2.20
2018-11-28T09:37:45.423Z,2.80
2018-11-28T09:40:21.753Z,3.20
2018-11-28T09:42:48.718Z,4.20
2018-11-28T09:45:15.707Z,5.70
2018-11-28T09:47:42.357Z,5.10
2018-11-28T09:50:11.562Z,4.40
2018-11-28T09:52:38.202Z,4.80
2018-11-28T09:55:06.218Z,5.20
2018-11-28T09:57:32.208Z,5.30
2018-11-28T09:59:58.867Z,5.40
2018-11-28T10:02:25.515Z,5.90
2018-11-28T10:04:52.166Z,5.80
2018-11-28T10:07:18.894Z,5.90
2018-11-28T10:09:45.562Z,6.20
2018-11-28T10:12:12.206Z,7.30
2018-11-28T10:14:38.890Z,8.80
2018-11-28T10:17:05.531Z,9.80
2018-11-28T10:19:32.198Z,9.90
2018-11-28T10:21:58.838Z,10.20
2018-11-28T10:24:25.514Z,10.50
2018-11-28T10:26:52.188Z,10.40
2018-11-28T10:29:18.871Z,10.80
2018-11-28T10:31:45.511Z,11.00
2018-11-28T10:34:12.338Z,11.20
2018-11-28T10:36:39.079Z,10.70
2018-11-28T10:39:06.955Z,11.20
2018-11-28T10:41:33.727Z,12.70
2018-11-28T10:44:00.366Z,12.70
2018-11-28T10:46:27.712Z,12.40
2018-11-28T10:48:53.777Z,11.70
2018-11-28T10:51:20.434Z,12.00
2018-11-28T10:53:48.123Z,12.60
2018-11-28T10:56:14.781Z,12.80
2018-11-28T10:58:41.431Z,12.90
2018-11-28T11:01:13.759Z,13.40
2018-11-28T11:04:15.114Z,13.50
2018-11-28T11:06:47.867Z,13.60
2018-11-28T11:09:20.402Z,12.80
2018-11-28T11:11:52.871Z,12.70
2018-11-28T11:14:25.454Z,13.20
2018-11-28T11:16:52.387Z,13.00
2018-11-28T11:19:19.042Z,12.40
2018-11-28T11:21:45.698Z,10.80
2018-11-28T11:24:12.386Z,9.50
2018-11-28T11:26:39.101Z,8.10
2018-11-28T11:29:05.750Z,7.90
2018-11-28T11:31:32.442Z,8.20
2018-11-28T11:33:59.093Z,8.90
2018-11-28T11:36:25.802Z,8.90
2018-11-28T11:38:52.442Z,9.50
2018-11-28T11:41:19.122Z,10.40
2018-11-28T11:43:45.767Z,10.50
2018-11-28T11:46:12.433Z,9.90
2018-11-28T11:48:39.087Z,9.10
2018-11-28T11:51:05.775Z,8.50
2018-11-28T11:53:32.411Z,8.70
2018-11-28T11:55:59.279Z,9.40
2018-11-28T11:58:26.730Z,9.90
2018-11-28T12:00:53.462Z,10.60
2018-11-28T12:03:20.128Z,10.20
2018-11-28T12:05:49.409Z,10.50
2018-11-28T12:08:16.156Z,11.10
2018-11-28T12:10:42.792Z,10.90
2018-11-28T12:13:09.488Z,11.60
2018-11-28T12:15:36.151Z,11.70
2018-11-28T12:18:02.846Z,11.00
2018-11-28T12:20:32.717Z,10.50
2018-11-28T12:22:59.452Z,10.30
2018-11-28T12:25:26.111Z,9.70
2018-11-28T12:27:52.798Z,9.60
2018-11-28T12:30:19.449Z,10.10
2018-11-28T12:32:46.127Z,10.60
2018-11-28T12:35:13.714Z,11.20
2018-11-28T12:37:40.599Z,11.10
2018-11-28T12:40:08.091Z,10.70
2018-11-28T12:42:34.801Z,10.40
2018-11-28T12:45:01.491Z,10.00
2018-11-28T12:47:28.182Z,9.50
2018-11-28T12:49:54.834Z,9.40
2018-11-28T12:52:21.531Z,9.20
2018-11-28T12:54:48.174Z,9.30
2018-11-28T12:57:14.864Z,9.30
2018-11-28T12:59:41.502Z,8.90
2018-11-28T13:02:08.187Z,8.20
2018-11-28T13:04:34.839Z,8.40
2018-11-28T13:07:01.498Z,8.30
2018-11-28T13:09:28.134Z,7.90
2018-11-28T13:11:59.880Z,8.20
2018-11-28T13:14:21.604Z,8.70
2018-11-28T13:16:48.254Z,8.40
2018-11-28T13:19:14.918Z,8.00
2018-11-28T13:21:41.573Z,6.70
2018-11-28T13:24:08.239Z,5.80
2018-11-28T13:26:34.902Z,4.80
2018-11-28T13:29:01.538Z,4.00
2018-11-28T13:31:28.218Z,3.50
2018-11-28T13:33:54.860Z,3.30
2018-11-28T13:36:22.699Z,3.20
2018-11-28T13:38:48.630Z,3.10
2018-11-28T13:41:14.996Z,3.10
2018-11-28T13:43:41.644Z,3.10
2018-11-28T13:46:08.318Z,2.80
2018-11-28T13:48:34.959Z,2.60
2018-11-28T13:51:01.640Z,2.40
2018-11-28T13:53:28.292Z,2.20
2018-11-28T13:56:57.266Z,2.10
2018-11-28T13:58:23.338Z,1.90
2018-11-28T14:00:50.027Z,1.80
2018-11-28T14:03:16.701Z,1.80
2018-11-28T14:05:43.344Z,1.90
2018-11-28T14:08:10.022Z,1.90
2018-11-28T14:10:36.711Z,2.00
2018-11-28T14:13:03.407Z,2.00
2018-11-28T14:15:30.039Z,2.00
2018-11-28T14:17:57.506Z,2.00
2018-11-28T14:20:24.143Z,2.00
2018-11-28T14:22:50.827Z,2.00
2018-11-28T14:25:17.470Z,1.90
2018-11-28T14:27:44.159Z,1.70
2018-11-28T14:30:14.632Z,1.60
2018-11-28T14:32:41.319Z,1.50
2018-11-28T14:35:08.403Z,1.40
2018-11-28T14:37:35.503Z,1.30
2018-11-28T14:40:02.284Z,1.10
2018-11-28T14:42:28.942Z,1.00
2018-11-28T14:44:55.610Z,0.90
2018-11-28T14:47:22.246Z,0.80
2018-11-28T14:49:48.894Z,0.70
2018-11-28T14:52:15.543Z,0.60
2018-11-28T14:54:42.191Z,0.50
2018-11-28T14:57:08.856Z,0.40
2018-11-28T14:59:40.362Z,0.30
2018-11-28T15:02:02.193Z,0.20
2018-11-28T15:04:28.839Z,0.00
2018-11-28T15:06:57.541Z,0.00
2018-11-28T15:09:30.710Z,-0.10
2018-11-28T15:11:57.466Z,-0.20
2018-11-28T15:14:24.106Z,-0.30
2018-11-28T15:16:50.768Z,-0.30
2018-11-28T15:19:17.419Z,-0.40
2018-11-28T15:21:44.080Z,-0.50
2018-11-28T15:24:10.750Z,-0.50
2018-11-28T15:26:37.403Z,-0.60
2018-11-28T15:29:04.614Z,-0.60
2018-11-28T15:31:31.267Z,-0.70
2018-11-28T15:34:05.234Z,-0.70
2018-11-28T15:36:31.878Z,-0.80
2018-11-28T15:38:58.510Z,-0.90
2018-11-28T15:41:25.146Z,-0.90
2018-11-28T15:43:51.823Z,-0.90
2018-11-28T15:46:18.471Z,-1.00
2018-11-28T15:48:45.119Z,-1.00
2018-11-28T15:51:11.761Z,-1.00
2018-11-28T15:53:38.413Z,-1.00
2018-11-28T15:56:05.059Z,-1.10
2018-11-28T15:58:31.713Z,-1.10
2018-11-28T16:00:58.439Z,-1.10
2018-11-28T16:03:25.089Z,-1.20
2018-11-28T16:05:51.727Z,-1.20
2018-11-28T16:08:18.379Z,-1.20
2018-11-28T16:10:45.019Z,-1.30
2018-11-28T16:13:12.570Z,-1.30
2018-11-28T16:15:40.318Z,-1.30
2018-11-28T16:18:06.971Z,-1.40
2018-11-28T16:20:33.602Z,-1.40
2018-11-28T16:23:04.413Z,-1.40
2018-11-28T16:25:26.925Z,-1.50
2018-11-28T16:27:53.583Z,-1.50
2018-11-28T16:30:20.222Z,-1.60
2018-11-28T16:32:46.866Z,-1.60
2018-11-28T16:35:14.090Z,-1.60
2018-11-28T16:37:40.746Z,-1.70
2018-11-28T16:40:08.185Z,-1.70
2018-11-28T16:42:34.828Z,-1.70
2018-11-28T16:45:01.467Z,-1.70
2018-11-28T16:47:28.122Z,-1.70
2018-11-28T16:49:54.750Z,-1.70
2018-11-28T16:52:21.391Z,-1.70
2018-11-28T16:54:48.039Z,-1.80
2018-11-28T16:57:14.715Z,-1.80
2018-11-28T16:59:41.359Z,-1.80
2018-11-28T17:02:07.999Z,-1.80
2018-11-28T17:04:34.670Z,-1.80
2018-11-28T17:07:01.303Z,-1.80
2018-11-28T17:09:27.947Z,-1.90
2018-11-28T17:11:54.587Z,-1.90
2018-11-28T17:14:21.242Z,-1.90
2018-11-28T17:16:47.874Z,-2.00
2018-11-28T17:19:14.519Z,-2.00
2018-11-28T17:21:41.154Z,-2.00
2018-11-28T17:24:07.798Z,-2.00
2018-11-28T17:26:34.433Z,-2.10
2018-11-28T17:29:01.082Z,-2.00
2018-11-28T17:31:27.743Z,-2.00
2018-11-28T17:33:54.383Z,-2.00
2018-11-28T17:36:21.046Z,-2.00
2018-11-28T17:38:47.689Z,-1.90
2018-11-28T17:41:14.322Z,-1.90
2018-11-28T17:43:40.971Z,-1.90
2018-11-28T17:46:07.615Z,-1.90
2018-11-28T17:48:34.258Z,-1.90
2018-11-28T17:51:00.902Z,-1.90
2018-11-28T17:53:27.546Z,-1.90
2018-11-28T17:55:55.578Z,-1.80
2018-11-28T17:58:22.226Z,-1.80
2018-11-28T18:00:48.929Z,-1.80
2018-11-28T18:03:15.611Z,-1.80
2018-11-28T18:05:42.250Z,-1.70
2018-11-28T18:08:08.895Z,-1.70
2018-11-28T18:10:35.531Z,-1.70
2018-11-28T18:13:12.611Z,-1.60
2018-11-28T18:15:41.831Z,-1.50
2018-11-28T18:18:09.203Z,-1.50
2018-11-28T18:20:36.247Z,-1.50
2018-11-28T18:23:03.489Z,-1.40
2018-11-28T18:25:31.100Z,-1.40
2018-11-28T18:27:58.256Z,-1.40
2018-11-28T18:30:25.411Z,-1.40
2018-11-28T18:32:52.874Z,-1.30
2018-11-28T18:35:20.463Z,-1.30
2018-11-28T18:37:47.593Z,-1.30
2018-11-28T18:40:14.954Z,-1.20
2018-11-28T18:42:42.212Z,-1.20
2018-11-28T18:45:10.585Z,-1.20
2018-11-28T18:47:37.226Z,-1.20
2018-11-28T18:50:05.316Z,-1.20
2018-11-28T18:52:32.020Z,-1.20
2018-11-28T18:54:58.701Z,-1.20
2018-11-28T18:57:25.863Z,-1.10
2018-11-28T18:59:53.221Z,-1.10
2018-11-28T19:02:19.879Z,-1.20
2018-11-28T19:04:48.148Z,-1.10
2018-11-28T19:07:14.866Z,-1.20
2018-11-28T19:09:49.043Z,-1.20
2018-11-28T19:12:15.926Z,-1.20
2018-11-28T19:14:42.642Z,-1.20
2018-11-28T19:17:09.319Z,-1.20
2018-11-28T19:19:36.017Z,-1.10
2018-11-28T19:22:02.702Z,-1.20
2018-11-28T19:24:30.470Z,-1.10
2018-11-28T19:26:57.216Z,-1.20
2018-11-28T19:29:23.876Z,-1.20
2018-11-28T19:31:50.547Z,-1.20
2018-11-28T19:34:18.330Z,-1.20
2018-11-28T19:36:43.980Z,-1.20
2018-11-28T19:39:10.626Z,-1.20
2018-11-28T19:41:37.293Z,-1.20
2018-11-28T19:44:04.667Z,-1.20
2018-11-28T19:46:31.341Z,-1.20
2018-11-28T19:48:57.990Z,-1.20
2018-11-28T19:51:24.678Z,-1.20
2018-11-28T19:53:51.322Z,-1.20
2018-11-28T19:56:17.994Z,-1.10
2018-11-28T19:58:44.646Z,-1.10
2018-11-28T20:01:11.322Z,-1.10
2018-11-28T20:03:37.990Z,-1.10
2018-11-28T20:06:04.887Z,-1.10
2018-11-28T20:08:31.514Z,-1.00
2018-11-28T20:10:58.186Z,-1.00
2018-11-28T20:13:24.817Z,-0.90
2018-11-28T20:15:51.864Z,-0.90
2018-11-28T20:18:18.500Z,-0.80
2018-11-28T20:20:45.175Z,-0.80
2018-11-28T20:23:12.086Z,-0.70
2018-11-28T20:25:39.060Z,-0.70
2018-11-28T20:28:06.415Z,-0.70
2018-11-28T20:30:34.187Z,-0.60
2018-11-28T20:33:00.840Z,-0.60
2018-11-28T20:35:27.520Z,-0.70
2018-11-28T20:37:54.158Z,-0.70
2018-11-28T20:40:20.860Z,-0.80
2018-11-28T20:42:48.225Z,-0.80
2018-11-28T20:45:15.037Z,-0.80
2018-11-28T20:47:41.707Z,-0.80
2018-11-28T20:50:09.192Z,-0.80
2018-11-28T20:52:35.860Z,-0.70
2018-11-28T20:55:02.559Z,-0.80
2018-11-28T20:57:29.235Z,-0.80
2018-11-28T20:59:55.874Z,-0.80
2018-11-28T21:02:22.543Z,-0.80
2018-11-28T21:04:49.188Z,-0.80
2018-11-28T21:07:15.855Z,-0.80
2018-11-28T21:09:48.319Z,-0.80
2018-11-28T21:12:14.985Z,-0.90
2018-11-28T21:14:41.623Z,-0.90
2018-11-28T21:17:08.286Z,-0.90
2018-11-28T21:19:34.928Z,-1.00
2018-11-28T21:22:01.568Z,-1.00
2018-11-28T21:24:28.203Z,-1.00
2018-11-28T21:26:54.842Z,-1.00
2018-11-28T21:29:21.487Z,-1.00
2018-11-28T21:31:48.138Z,-1.00
2018-11-28T21:34:14.767Z,-1.00
2018-11-28T21:36:41.430Z,-1.00
2018-11-28T21:39:08.126Z,-1.00
2018-11-28T21:41:34.782Z,-1.10
2018-11-28T21:44:01.426Z,-1.10
2018-11-28T21:46:28.079Z,-1.10
2018-11-28T21:48:54.722Z,-1.20
2018-11-28T21:51:21.374Z,-1.20
2018-11-28T21:53:48.010Z,-1.20
2018-11-28T21:56:14.663Z,-1.30
2018-11-28T21:58:41.310Z,-1.30
2018-11-28T22:01:07.978Z,-1.30
2018-11-28T22:03:34.626Z,-1.40
2018-11-28T22:06:01.290Z,-1.40
2018-11-28T22:08:27.934Z,-1.50
2018-11-28T22:10:54.593Z,-1.50
2018-11-28T22:13:21.238Z,-1.50
2018-11-28T22:15:47.895Z,-1.60
2018-11-28T22:18:14.551Z,-1.60
2018-11-28T22:20:41.206Z,-1.60
2018-11-28T22:23:07.854Z,-1.60
2018-11-28T22:25:34.515Z,-1.60
2018-11-28T22:28:01.157Z,-1.60
2018-11-28T22:30:28.037Z,-1.70
2018-11-28T22:32:54.707Z,-1.70
2018-11-28T22:35:21.374Z,-1.60
2018-11-28T22:37:48.018Z,-1.70
2018-11-28T22:40:17.246Z,-1.70
2018-11-28T22:42:43.942Z,-1.70
2018-11-28T22:45:12.278Z,-1.80
2018-11-28T22:47:38.928Z,-1.80
2018-11-28T22:50:06.162Z,-1.90
2018-11-28T22:52:32.818Z,-1.90
2018-11-28T22:54:59.462Z,-1.90
2018-11-28T22:57:26.109Z,-1.90
2018-11-28T22:59:52.767Z,-1.90
2018-11-28T23:02:34.307Z,-2.00
2018-11-28T23:05:00.954Z,-2.00
2018-11-28T23:07:34.774Z,-2.00
2018-11-28T23:10:01.418Z,-2.00
2018-11-28T23:12:28.061Z,-2.00
2018-11-28T23:14:54.703Z,-2.00
2018-11-28T23:17:21.346Z,-2.00
2018-11-28T23:19:47.987Z,-2.00
2018-11-28T23:22:14.638Z,-1.90
2018-11-28T23:24:41.287Z,-2.00
2018-11-28T23:27:07.950Z,-1.90
2018-11-28T23:29:34.589Z,-2.00
2018-11-28T23:32:01.238Z,-2.00
2018-11-28T23:34:27.891Z,-2.00
2018-11-28T23:36:54.550Z,-1.90
2018-11-28T23:39:21.194Z,-1.90
2018-11-28T23:41:47.854Z,-1.90
2018-11-28T23:44:14.510Z,-1.90
2018-11-28T23:46:41.158Z,-1.90
2018-11-28T23:49:07.798Z,-1.90
2018-11-28T23:51:34.459Z,-1.90
2018-11-28T23:54:01.098Z,-1.80
2018-11-28T23:56:27.747Z,-1.80
2018-11-28T23:58:54.398Z,-1.70
